Nearby METAR Reports

 

EGNT - Newcastle, United Kingdom
Distance from station: NNE 1mi, 2km
Updated: 27/05/2018 15:50
Clear
Clear
 Wind from E
Wind: E 10 mph , 17 km/h
Temperature: 18°C
Dew Point: 13°C
Humidity: 73%
Barometer: 1021 hPa
Summary: Clear
Visibility: greater than 7 miles , 10 km
2018/05/27 14:50 EGNT 271450Z 08009KT 040V120 CAVOK 18/13 Q1021
EGQM - Boulmer, United Kingdom
Distance from station: N 29mi, 47km
Updated: 27/05/2018 14:50
NOT Current
Clear
Clear
 Wind from N
Wind: N 9 mph , 15 km/h
Temperature: 16°C
Dew Point: 12°C
Humidity: 77%
Barometer: 1022 hPa
Clouds: Clear
Visibility: 6 miles , 10 km
2018/05/27 13:50 EGQM 271350Z AUTO 01008KT 9999 NCD 16/12 Q1022
 
EGOM - Spadeadam, United Kingdom
Distance from station: W 34mi, 54km
Updated: 27/05/2018 14:50
NOT Current
Clear
Clear
 Wind from E
Wind: E 22 mph , 35 km/h
Temperature: 22°C
Dew Point: 11°C
Humidity: 50%
Barometer: 1020 hPa
Clouds: Clear
Visibility: 6 miles , 10 km
2018/05/27 13:50 EGOM 271350Z AUTO 08019KT 9999 NCD 22/11 Q1020
EGNV - Tees-Side, United Kingdom
Distance from station: SSE 35mi, 57km
Updated: 27/05/2018 15:50
Clear
Clear
 Wind from NE
Wind: NE 17 mph , 28 km/h
Temperature: 18°C
Dew Point: 13°C
Humidity: 73%
Barometer: 1020 hPa
Summary: Clear
Visibility: greater than 7 miles , 10 km
2018/05/27 14:50 EGNV 271450Z 04015KT CAVOK 18/13 Q1020
 
EGNC - Carlisle, United Kingdom
Distance from station: W 45mi, 72km
Updated: 25/05/2018 15:50
NOT Current
Partly cloudy
Partly cloudy
 Wind from ENE
Wind: ENE 17 mph , 28 km/h
Temperature: 19°C
Dew Point: 7°C
Humidity: 46%
Barometer: 1022 hPa
Clouds: Partly cloudy
Visibility: 6 miles , 10 km
Cloud details: Few Clouds 975 m
Partly cloudy 1219 m
2018/05/25 14:50 EGNC 251450Z 07015KT 030V100 9999 FEW032 SCT040 19/07 Q1022
EGXE - Leeming Raf, United Kingdom
Distance from station: S 50mi, 81km
Updated: 27/05/2018 14:50
NOT Current
Clear
Clear
 Wind from ESE
Wind: ESE 17 mph , 28 km/h
Temperature: 24°C
Dew Point: 10°C
Humidity: 41%
Barometer: 1019 hPa
Clouds: Clear
Visibility: 6 miles , 10 km
2018/05/27 13:50 EGXE 271350Z AUTO 11015KT 9999 NCD 24/10 Q1019
 
EGXZ - Topcliffe Raf, United Kingdom
Distance from station: SSE 57mi, 91km
Updated: 27/05/2018 14:50
NOT Current
Clear
Clear
 Wind from E
Wind: E 21 mph , 33 km/h
Temperature: 23°C
Dew Point: 13°C
Humidity: 53%
Barometer: 1020 hPa
Clouds: Clear
Visibility: 6 miles , 10 km
2018/05/27 13:50 EGXZ 271350Z AUTO 09018KT 9999 NCD 23/13 Q1020
EGXU - Linton-On-Ouse R, United Kingdom
Distance from station: SSE 68mi, 110km
Updated: 27/05/2018 14:50
NOT Current
Clear
Clear
 Wind from E
Wind: E 21 mph , 33 km/h
Temperature: 23°C
Dew Point: 9°C
Humidity: 41%
Barometer: 1019 hPa
Clouds: Clear
Visibility: 6 miles , 10 km
2018/05/27 13:50 EGXU 271350Z AUTO 10018KT 9999 // NCD 23/09 Q1019
 
EGNM - Leeds And Bradfo, United Kingdom
Distance from station: S 78mi, 126km
Updated: 27/05/2018 15:50
Few Clouds
Few Clouds
 Wind from E
Wind: E 17 mph , 28 km/h
Temperature: 22°C
Dew Point: 11°C
Humidity: 50%
Barometer: 1019 hPa
Clouds: Few Clouds
Visibility: 6 miles , 10 km
Cloud details: Few Clouds 1341 m
2018/05/27 14:50 EGNM 271450Z 08015KT 030V110 9999 FEW044 22/11 Q1019
EGPH - Edinburgh Airpor, United Kingdom
Distance from station: NW 92mi, 148km
Updated: 27/05/2018 15:50
Haze, Overcast
Haze, Overcast
 Wind from ENE
Wind: ENE 13 mph , 20 km/h
Temperature: 11°C
Dew Point: 10°C
Humidity: 94%
Barometer: 1022 hPa
Summary: Haze
Clouds: Overcast
Visibility: 1 mile , 1 km
Cloud details: Overcast 30 m
2018/05/27 14:50 EGPH 271450Z 07011KT 1000 R06/P1500 HZ OVC001 11/10 Q1022
 
EGXV - Leconfield (aut), United Kingdom
Distance from station: SE 93mi, 150km
Updated: 27/05/2018 14:50
NOT Current
Clear
Clear
 Wind from E
Wind: E 13 mph , 20 km/h
Temperature: 20°C
Dew Point: 12°C
Humidity: 60%
Barometer: 1019 hPa
Clouds: Clear
Visibility: 6 miles , 10 km
2018/05/27 13:50 EGXV 271350Z AUTO 09011KT 9999 NCD 20/12 Q1019
EGNO - Wharton, United Kingdom
Distance from station: SSW 99mi, 159km
Updated: 25/05/2018 17:20
NOT Current
Light rain, Mostly cloudy
Light rain, Mostly cloudy
 Wind from NE
Wind: NE 7 mph , 11 km/h
Temperature: 15°C
Dew Point: 14°C
Humidity: 94%
Barometer: 1020 hPa
Summary: Light rain
Clouds: Mostly cloudy
Visibility: 6 miles , 10 km
Cloud details: Few Clouds 488 m
Partly cloudy 579 m
Mostly cloudy 1494 m
2018/05/25 16:20 EGNO 251620Z 05006KT 9999 -RA FEW016 SCT019 BKN049 15/14 Q1020
 
EGNH - Blackpool Airpor, United Kingdom
Distance from station: SSW 100mi, 161km
Updated: 27/05/2018 15:50
Clear
Clear
 Wind from E
Wind: E 22 mph , 35 km/h
Temperature: 26°C
Dew Point: 12°C
Humidity: 42%
Barometer: 1016 hPa
Summary: Clear
Visibility: greater than 7 miles , 10 km
2018/05/27 14:50 EGNH 271450Z 09019KT CAVOK 26/12 Q1016